sensor_id;sensor_type;location;lat;lon;timestamp;pressure;altitude;pressure_sealevel;temperature;humidity
62710;BME280;48770;51.624;5.886;2023-03-24T00:01:29;99767.22;;;21.15;40.19
62710;BME280;48770;51.624;5.886;2023-03-24T00:03:54;99758.88;;;21.15;40.69
62710;BME280;48770;51.624;5.886;2023-03-24T00:06:20;99758.88;;;21.15;40.38
62710;BME280;48770;51.624;5.886;2023-03-24T00:08:46;99749.72;;;21.15;40.53
62710;BME280;48770;51.624;5.886;2023-03-24T00:11:12;99757.25;;;21.14;40.09
62710;BME280;48770;51.624;5.886;2023-03-24T00:13:39;99745.34;;;21.14;40.18
62710;BME280;48770;51.624;5.886;2023-03-24T00:16:07;99746.94;;;21.15;40.40
62710;BME280;48770;51.624;5.886;2023-03-24T00:18:34;99741.78;;;21.13;40.51
62710;BME280;48770;51.624;5.886;2023-03-24T00:21:01;99733.44;;;21.13;40.50
62710;BME280;48770;51.624;5.886;2023-03-24T00:23:28;99723.13;;;21.14;40.12
62710;BME280;48770;51.624;5.886;2023-03-24T00:26:12;99709.59;;;21.12;40.28
62710;BME280;48770;51.624;5.886;2023-03-24T00:28:40;99704.84;;;21.13;40.24
62710;BME280;48770;51.624;5.886;2023-03-24T00:31:07;99698.47;;;21.12;40.30
62710;BME280;48770;51.624;5.886;2023-03-24T00:33:34;99704.03;;;21.12;40.28
62710;BME280;48770;51.624;5.886;2023-03-24T00:36:05;99701.66;;;21.11;40.47
62710;BME280;48770;51.624;5.886;2023-03-24T00:38:31;99694.50;;;21.10;40.43
62710;BME280;48770;51.624;5.886;2023-03-24T00:40:59;99701.66;;;21.11;40.50
62710;BME280;48770;51.624;5.886;2023-03-24T00:43:24;99706.41;;;21.10;40.26
62710;BME280;48770;51.624;5.886;2023-03-24T00:45:56;99702.44;;;21.11;40.30
62710;BME280;48770;51.624;5.886;2023-03-24T00:48:21;99706.41;;;21.10;40.56
62710;BME280;48770;51.624;5.886;2023-03-24T00:50:50;99708.00;;;21.11;40.61
62710;BME280;48770;51.624;5.886;2023-03-24T00:53:17;99703.63;;;21.10;40.36
62710;BME280;48770;51.624;5.886;2023-03-24T00:55:44;99702.44;;;21.11;40.38
62710;BME280;48770;51.624;5.886;2023-03-24T00:58:11;99692.50;;;21.10;40.34
62710;BME280;48770;51.624;5.886;2023-03-24T01:00:42;99690.91;;;21.09;40.43
62710;BME280;48770;51.624;5.886;2023-03-24T01:03:07;99669.47;;;21.10;40.42
62710;BME280;48770;51.624;5.886;2023-03-24T01:05:33;99671.44;;;21.09;40.43
62710;BME280;48770;51.624;5.886;2023-03-24T01:08:01;99672.25;;;21.10;40.34
62710;BME280;48770;51.624;5.886;2023-03-24T01:10:27;99674.59;;;21.08;40.05
62710;BME280;48770;51.624;5.886;2023-03-24T01:12:55;99663.13;;;21.09;40.18
62710;BME280;48770;51.624;5.886;2023-03-24T01:15:23;99655.97;;;21.08;40.24
62710;BME280;48770;51.624;5.886;2023-03-24T01:17:50;99669.03;;;21.08;40.41
62710;BME280;48770;51.624;5.886;2023-03-24T01:20:17;99657.13;;;21.07;40.35
62710;BME280;48770;51.624;5.886;2023-03-24T01:22:43;99650.75;;;21.07;40.37
62710;BME280;48770;51.624;5.886;2023-03-24T01:25:21;99649.97;;;21.06;40.37
62710;BME280;48770;51.624;5.886;2023-03-24T01:27:47;99655.50;;;21.06;40.49
62710;BME280;48770;51.624;5.886;2023-03-24T01:30:15;99649.16;;;21.06;40.24
62710;BME280;48770;51.624;5.886;2023-03-24T01:32:41;99656.69;;;21.05;40.61
62710;BME280;48770;51.624;5.886;2023-03-24T01:35:08;99639.22;;;21.05;40.56
62710;BME280;48770;51.624;5.886;2023-03-24T01:37:34;99634.47;;;21.05;40.45
62710;BME280;48770;51.624;5.886;2023-03-24T01:39:59;99642.81;;;21.05;40.33
62710;BME280;48770;51.624;5.886;2023-03-24T01:42:26;99627.31;;;21.04;40.21
62710;BME280;48770;51.624;5.886;2023-03-24T01:45:00;99632.88;;;21.04;40.34
62710;BME280;48770;51.624;5.886;2023-03-24T01:47:25;99617.75;;;21.02;40.48
62710;BME280;48770;51.624;5.886;2023-03-24T01:49:55;99616.56;;;21.03;40.63
62710;BME280;48770;51.624;5.886;2023-03-24T01:52:25;99616.56;;;21.03;40.44
62710;BME280;48770;51.624;5.886;2023-03-24T01:54:54;99607.44;;;21.02;40.37
62710;BME280;48770;51.624;5.886;2023-03-24T01:57:29;99610.22;;;21.02;40.32
62710;BME280;48770;51.624;5.886;2023-03-24T01:59:58;99611.03;;;21.03;40.69
62710;BME280;48770;51.624;5.886;2023-03-24T02:02:25;99597.50;;;21.01;40.70
62710;BME280;48770;51.624;5.886;2023-03-24T02:04:58;99601.88;;;21.02;40.59
62710;BME280;48770;51.624;5.886;2023-03-24T02:07:30;99595.91;;;21.00;40.46
62710;BME280;48770;51.624;5.886;2023-03-24T02:09:56;99603.06;;;21.01;40.44
62710;BME280;48770;51.624;5.886;2023-03-24T02:12:22;99598.31;;;21.02;40.60
62710;BME280;48770;51.624;5.886;2023-03-24T02:14:48;99593.53;;;21.02;40.50
62710;BME280;48770;51.624;5.886;2023-03-24T02:33:45;99564.91;;;20.94;40.50
62710;BME280;48770;51.624;5.886;2023-03-24T02:39:40;99556.16;;;20.92;40.64
62710;BME280;48770;51.624;5.886;2023-03-24T02:42:21;99573.63;;;20.93;40.82
62710;BME280;48770;51.624;5.886;2023-03-24T02:50:36;99562.09;;;20.91;40.45
62710;BME280;48770;51.624;5.886;2023-03-24T02:59:05;99583.13;;;20.88;40.61
62710;BME280;48770;51.624;5.886;2023-03-24T03:01:37;99579.16;;;20.89;40.78
62710;BME280;48770;51.624;5.886;2023-03-24T03:04:10;99594.06;;;20.71;40.93
62710;BME280;48770;51.624;5.886;2023-03-24T03:06:38;99597.75;;;20.82;40.77
62710;BME280;48770;51.624;5.886;2023-03-24T03:09:08;99591.84;;;20.87;40.90
62710;BME280;48770;51.624;5.886;2023-03-24T03:11:34;99600.59;;;20.89;40.82
62710;BME280;48770;51.624;5.886;2023-03-24T03:14:23;99592.63;;;20.87;40.72
62710;BME280;48770;51.624;5.886;2023-03-24T03:16:53;99586.69;;;20.89;40.65
62710;BME280;48770;51.624;5.886;2023-03-24T03:19:30;99598.59;;;20.89;40.85
62710;BME280;48770;51.624;5.886;2023-03-24T03:21:57;99600.78;;;20.70;41.02
62710;BME280;48770;51.624;5.886;2023-03-24T03:24:30;99615.56;;;20.81;40.78
62710;BME280;48770;51.624;5.886;2023-03-24T03:26:57;99602.31;;;20.63;41.23
62710;BME280;48770;51.624;5.886;2023-03-24T03:29:28;99615.53;;;20.77;40.83
62710;BME280;48770;51.624;5.886;2023-03-24T03:32:00;99624.69;;;20.81;41.03
62710;BME280;48770;51.624;5.886;2023-03-24T03:39:55;99632.31;;;20.84;40.75
62710;BME280;48770;51.624;5.886;2023-03-24T03:42:22;99641.44;;;20.85;40.69
62710;BME280;48770;51.624;5.886;2023-03-24T03:44:48;99643.03;;;20.86;40.98
62710;BME280;48770;51.624;5.886;2023-03-24T03:47:13;99655.75;;;20.87;40.92
62710;BME280;48770;51.624;5.886;2023-03-24T03:49:40;99676.00;;;20.87;40.80
62710;BME280;48770;51.624;5.886;2023-03-24T03:52:05;99687.09;;;20.87;40.93
62710;BME280;48770;51.624;5.886;2023-03-24T03:54:31;99697.03;;;20.88;40.72
62710;BME280;48770;51.624;5.886;2023-03-24T03:56:58;99708.94;;;20.89;40.60
62710;BME280;48770;51.624;5.886;2023-03-24T03:59:29;99706.16;;;20.89;40.64
62710;BME280;48770;51.624;5.886;2023-03-24T04:02:19;99710.94;;;20.88;40.81
62710;BME280;48770;51.624;5.886;2023-03-24T04:15:44;99730.75;;;20.87;40.72
62710;BME280;48770;51.624;5.886;2023-03-24T04:18:36;99734.72;;;20.86;40.78
62710;BME280;48770;51.624;5.886;2023-03-24T04:21:19;99747.03;;;20.88;40.73
62710;BME280;48770;51.624;5.886;2023-03-24T04:24:01;99749.44;;;20.90;40.79
62710;BME280;48770;51.624;5.886;2023-03-24T04:26:44;99760.97;;;20.92;40.78
62710;BME280;48770;51.624;5.886;2023-03-24T04:29:17;99761.41;;;20.94;40.75
62710;BME280;48770;51.624;5.886;2023-03-24T04:31:53;99775.72;;;20.96;40.47
62710;BME280;48770;51.624;5.886;2023-03-24T04:34:29;99778.09;;;20.98;40.73
62710;BME280;48770;51.624;5.886;2023-03-24T04:36:58;99790.81;;;20.99;40.56
62710;BME280;48770;51.624;5.886;2023-03-24T04:39:30;99801.19;;;21.02;40.60
62710;BME280;48770;51.624;5.886;2023-03-24T04:42:00;99799.19;;;21.02;40.20
62710;BME280;48770;51.624;5.886;2023-03-24T04:44:28;99792.88;;;21.05;40.71
62710;BME280;48770;51.624;5.886;2023-03-24T04:46:58;99783.38;;;21.06;40.28
62710;BME280;48770;51.624;5.886;2023-03-24T04:49:25;99794.47;;;21.06;40.15
62710;BME280;48770;51.624;5.886;2023-03-24T04:51:51;99812.41;;;21.09;40.09
62710;BME280;48770;51.624;5.886;2023-03-24T04:54:21;99816.78;;;21.10;40.20
62710;BME280;48770;51.624;5.886;2023-03-24T04:56:47;99824.75;;;21.11;40.21
62710;BME280;48770;51.624;5.886;2023-03-24T04:59:13;99830.72;;;21.13;40.26
62710;BME280;48770;51.624;5.886;2023-03-24T05:01:40;99839.06;;;21.13;40.33
62710;BME280;48770;51.624;5.886;2023-03-24T05:04:06;99841.47;;;21.15;40.04
62710;BME280;48770;51.624;5.886;2023-03-24T05:06:32;99835.09;;;21.14;40.45
62710;BME280;48770;51.624;5.886;2023-03-24T05:08:58;99849.41;;;21.16;40.01
62710;BME280;48770;51.624;5.886;2023-03-24T05:11:27;99847.81;;;21.15;39.93
62710;BME280;48770;51.624;5.886;2023-03-24T05:13:53;99845.84;;;21.16;40.20
62710;BME280;48770;51.624;5.886;2023-03-24T05:16:19;99840.69;;;21.18;39.91
62710;BME280;48770;51.624;5.886;2023-03-24T05:18:44;99840.69;;;21.18;40.03
62710;BME280;48770;51.624;5.886;2023-03-24T05:21:10;99858.19;;;21.18;40.24
62710;BME280;48770;51.624;5.886;2023-03-24T05:23:35;99855.41;;;21.18;40.19
62710;BME280;48770;51.624;5.886;2023-03-24T05:26:01;99876.47;;;21.19;39.95
62710;BME280;48770;51.624;5.886;2023-03-24T05:28:26;99870.91;;;21.19;40.30
62710;BME280;48770;51.624;5.886;2023-03-24T05:30:51;99876.47;;;21.19;40.18
62710;BME280;48770;51.624;5.886;2023-03-24T05:33:17;99883.25;;;21.22;39.65
62710;BME280;48770;51.624;5.886;2023-03-24T05:35:42;99877.69;;;21.22;39.90
62710;BME280;48770;51.624;5.886;2023-03-24T05:38:08;99887.63;;;21.23;39.89
62710;BME280;48770;51.624;5.886;2023-03-24T05:40:35;99887.63;;;21.23;39.74
62710;BME280;48770;51.624;5.886;2023-03-24T05:43:01;99890.06;;;21.24;40.04
62710;BME280;48770;51.624;5.886;2023-03-24T05:45:26;99890.06;;;21.24;40.08
62710;BME280;48770;51.624;5.886;2023-03-24T05:47:51;99898.38;;;21.24;39.84
62710;BME280;48770;51.624;5.886;2023-03-24T05:50:17;99892.84;;;21.24;40.03
62710;BME280;48770;51.624;5.886;2023-03-24T05:52:42;99890.84;;;21.25;39.77
62710;BME280;48770;51.624;5.886;2023-03-24T05:55:08;99897.22;;;21.26;39.80
62710;BME280;48770;51.624;5.886;2023-03-24T05:57:33;99909.13;;;21.26;39.95
62710;BME280;48770;51.624;5.886;2023-03-24T06:00:01;99909.94;;;21.27;39.80
62710;BME280;48770;51.624;5.886;2023-03-24T06:02:28;99911.53;;;21.28;39.94
62710;BME280;48770;51.624;5.886;2023-03-24T06:04:54;99917.91;;;21.28;40.09
62710;BME280;48770;51.624;5.886;2023-03-24T06:07:22;99914.72;;;21.30;39.68
62710;BME280;48770;51.624;5.886;2023-03-24T06:09:50;99915.53;;;21.30;39.90
62710;BME280;48770;51.624;5.886;2023-03-24T06:12:17;99919.53;;;21.33;40.02
62710;BME280;48770;51.624;5.886;2023-03-24T06:14:42;99925.09;;;21.33;39.50
62710;BME280;48770;51.624;5.886;2023-03-24T06:17:08;99921.50;;;21.32;39.60
62710;BME280;48770;51.624;5.886;2023-03-24T06:19:38;99922.31;;;21.33;39.91
62710;BME280;48770;51.624;5.886;2023-03-24T06:22:04;99917.22;;;21.35;39.45
62710;BME280;48770;51.624;5.886;2023-03-24T06:24:30;99924.75;;;21.34;39.47
62710;BME280;48770;51.624;5.886;2023-03-24T06:26:55;99927.16;;;21.36;39.84
62710;BME280;48770;51.624;5.886;2023-03-24T06:29:23;99933.13;;;21.38;39.82
62710;BME280;48770;51.624;5.886;2023-03-24T06:31:48;99935.13;;;21.37;39.70
62710;BME280;48770;51.624;5.886;2023-03-24T06:34:14;99935.91;;;21.38;39.74
62710;BME280;48770;51.624;5.886;2023-03-24T06:36:39;99943.06;;;21.39;39.50
62710;BME280;48770;51.624;5.886;2023-03-24T06:39:05;99934.72;;;21.39;39.67
62710;BME280;48770;51.624;5.886;2023-03-24T06:41:31;99940.72;;;21.41;39.68
62710;BME280;48770;51.624;5.886;2023-03-24T06:43:56;99937.94;;;21.41;39.24
62710;BME280;48770;51.624;5.886;2023-03-24T06:46:22;99947.88;;;21.42;39.28
62710;BME280;48770;51.624;5.886;2023-03-24T06:48:48;99947.09;;;21.41;39.34
62710;BME280;48770;51.624;5.886;2023-03-24T06:51:13;99950.66;;;21.42;39.50
62710;BME280;48770;51.624;5.886;2023-03-24T06:53:39;99949.47;;;21.43;39.53
62710;BME280;48770;51.624;5.886;2023-03-24T06:56:06;99949.47;;;21.43;39.43
62710;BME280;48770;51.624;5.886;2023-03-24T06:58:32;99945.53;;;21.44;39.44
62710;BME280;48770;51.624;5.886;2023-03-24T07:00:59;99951.88;;;21.44;39.29
62710;BME280;48770;51.624;5.886;2023-03-24T07:03:25;99952.69;;;21.45;39.48
62710;BME280;48770;51.624;5.886;2023-03-24T07:05:50;99956.25;;;21.45;39.50
62710;BME280;48770;51.624;5.886;2023-03-24T07:08:16;99954.66;;;21.44;39.33
62710;BME280;48770;51.624;5.886;2023-03-24T07:10:42;99969.00;;;21.46;39.26
62710;BME280;48770;51.624;5.886;2023-03-24T07:13:07;99961.81;;;21.45;39.12
62710;BME280;48770;51.624;5.886;2023-03-24T07:15:33;99969.00;;;21.46;39.45
62710;BME280;48770;51.624;5.886;2023-03-24T07:17:59;99963.44;;;21.46;39.31
62710;BME280;48770;51.624;5.886;2023-03-24T07:20:24;99962.63;;;21.46;39.26
62710;BME280;48770;51.624;5.886;2023-03-24T07:22:50;99976.53;;;21.46;39.01
62710;BME280;48770;51.624;5.886;2023-03-24T07:25:15;99979.69;;;21.44;39.40
62710;BME280;48770;51.624;5.886;2023-03-24T07:27:44;99970.97;;;21.46;39.11
62710;BME280;48770;51.624;5.886;2023-03-24T07:30:10;99980.50;;;21.45;39.39
62710;BME280;48770;51.624;5.886;2023-03-24T07:32:35;99966.59;;;21.45;39.33
62710;BME280;48770;51.624;5.886;2023-03-24T07:35:05;99977.72;;;21.45;39.08
62710;BME280;48770;51.624;5.886;2023-03-24T07:37:31;99977.72;;;21.45;39.38
62710;BME280;48770;51.624;5.886;2023-03-24T07:39:56;99978.91;;;21.44;39.21
62710;BME280;48770;51.624;5.886;2023-03-24T07:42:22;99976.91;;;21.44;39.16
62710;BME280;48770;51.624;5.886;2023-03-24T07:44:48;99987.22;;;21.44;38.88
62710;BME280;48770;51.624;5.886;2023-03-24T07:47:13;99992.00;;;21.43;38.95
62710;BME280;48770;51.624;5.886;2023-03-24T07:49:39;99982.06;;;21.42;38.95
62710;BME280;48770;51.624;5.886;2023-03-24T07:52:04;99982.44;;;21.41;39.28
62710;BME280;48770;51.624;5.886;2023-03-24T07:54:33;99992.38;;;21.42;39.01
62710;BME280;48770;51.624;5.886;2023-03-24T07:56:59;100000.72;;;21.42;38.76
62710;BME280;48770;51.624;5.886;2023-03-24T07:59:24;99998.75;;;21.42;39.07
62710;BME280;48770;51.624;5.886;2023-03-24T08:01:50;100003.50;;;21.42;39.23
62710;BME280;48770;51.624;5.886;2023-03-24T08:04:15;100011.03;;;21.41;39.07
62710;BME280;48770;51.624;5.886;2023-03-24T08:06:42;100004.31;;;21.42;38.89
62710;BME280;48770;51.624;5.886;2023-03-24T08:09:07;100005.91;;;21.43;38.92
62710;BME280;48770;51.624;5.886;2023-03-24T08:11:33;100011.88;;;21.45;39.45
62710;BME280;48770;51.624;5.886;2023-03-24T08:14:00;100010.34;;;21.48;39.26
62710;BME280;48770;51.624;5.886;2023-03-24T08:16:25;100030.22;;;21.50;39.20
62710;BME280;48770;51.624;5.886;2023-03-24T08:18:50;100034.59;;;21.51;39.23
62710;BME280;48770;51.624;5.886;2023-03-24T08:21:16;100035.03;;;21.53;39.47
62710;BME280;48770;51.624;5.886;2023-03-24T08:23:41;100034.66;;;21.54;39.48
62710;BME280;48770;51.624;5.886;2023-03-24T08:26:07;100044.97;;;21.54;39.81
62710;BME280;48770;51.624;5.886;2023-03-24T08:28:35;100044.22;;;21.57;39.83
62710;BME280;48770;51.624;5.886;2023-03-24T08:31:00;100039.09;;;21.59;39.73
62710;BME280;48770;51.624;5.886;2023-03-24T08:33:25;100041.50;;;21.61;39.76
62710;BME280;48770;51.624;5.886;2023-03-24T08:35:51;100045.53;;;21.63;39.81
62710;BME280;48770;51.624;5.886;2023-03-24T08:38:21;100043.97;;;21.66;39.49
62710;BME280;48770;51.624;5.886;2023-03-24T08:40:47;100056.69;;;21.67;39.43
62710;BME280;48770;51.624;5.886;2023-03-24T08:43:14;100051.13;;;21.67;39.55
62710;BME280;48770;51.624;5.886;2023-03-24T08:45:40;100051.94;;;21.67;39.81
62710;BME280;48770;51.624;5.886;2023-03-24T08:48:06;100059.53;;;21.70;39.07
62710;BME280;48770;51.624;5.886;2023-03-24T08:50:35;100062.31;;;21.70;39.21
62710;BME280;48770;51.624;5.886;2023-03-24T08:53:01;100044.81;;;21.70;39.07
62710;BME280;48770;51.624;5.886;2023-03-24T08:55:27;100062.31;;;21.70;39.38
62710;BME280;48770;51.624;5.886;2023-03-24T08:57:52;100062.31;;;21.70;39.03
62710;BME280;48770;51.624;5.886;2023-03-24T09:00:19;100048.38;;;21.70;39.04
62710;BME280;48770;51.624;5.886;2023-03-24T09:02:47;100059.53;;;21.70;39.34
62710;BME280;48770;51.624;5.886;2023-03-24T09:05:13;100055.94;;;21.70;39.25
62710;BME280;48770;51.624;5.886;2023-03-24T09:07:39;100058.72;;;21.70;39.23
62710;BME280;48770;51.624;5.886;2023-03-24T09:10:07;100057.91;;;21.69;38.88
62710;BME280;48770;51.624;5.886;2023-03-24T09:12:34;100053.16;;;21.70;39.27
62710;BME280;48770;51.624;5.886;2023-03-24T09:14:59;100064.66;;;21.68;39.16
62710;BME280;48770;51.624;5.886;2023-03-24T09:17:24;100061.06;;;21.68;38.84
62710;BME280;48770;51.624;5.886;2023-03-24T09:19:50;100070.59;;;21.67;38.90
62710;BME280;48770;51.624;5.886;2023-03-24T09:22:15;100068.63;;;21.67;38.98
62710;BME280;48770;51.624;5.886;2023-03-24T09:24:40;100064.66;;;21.68;39.03
62710;BME280;48770;51.624;5.886;2023-03-24T09:27:06;100060.28;;;21.67;39.30
62710;BME280;48770;51.624;5.886;2023-03-24T09:29:31;100075.00;;;21.68;39.08
62710;BME280;48770;51.624;5.886;2023-03-24T09:31:57;100071.78;;;21.66;39.06
62710;BME280;48770;51.624;5.886;2023-03-24T09:34:23;100069.00;;;21.66;38.99
62710;BME280;48770;51.624;5.886;2023-03-24T09:36:49;100064.63;;;21.65;38.86
62710;BME280;48770;51.624;5.886;2023-03-24T09:39:15;100071.38;;;21.64;38.81
62710;BME280;48770;51.624;5.886;2023-03-24T09:41:42;100076.94;;;21.64;39.16
62710;BME280;48770;51.624;5.886;2023-03-24T09:44:24;100082.88;;;21.62;39.09
62710;BME280;48770;51.624;5.886;2023-03-24T09:49:32;100093.03;;;21.51;39.10
62710;BME280;48770;51.624;5.886;2023-03-24T09:52:09;100092.25;;;21.54;38.81
62710;BME280;48770;51.624;5.886;2023-03-24T09:54:57;100090.66;;;21.53;39.07
62710;BME280;48770;51.624;5.886;2023-03-24T09:57:39;100082.75;;;21.55;38.92
62710;BME280;48770;51.624;5.886;2023-03-24T10:00:19;100087.50;;;21.54;39.11
62710;BME280;48770;51.624;5.886;2023-03-24T10:02:46;100089.47;;;21.54;39.10
62710;BME280;48770;51.624;5.886;2023-03-24T10:05:16;100105.00;;;21.55;39.14
62710;BME280;48770;51.624;5.886;2023-03-24T10:07:52;100113.72;;;21.53;39.10
62710;BME280;48770;51.624;5.886;2023-03-24T10:10:32;100117.69;;;21.52;39.14
62710;BME280;48770;51.624;5.886;2023-03-24T10:13:15;100119.66;;;21.52;38.92
62710;BME280;48770;51.624;5.886;2023-03-24T10:16:51;100120.84;;;21.51;39.03
62710;BME280;48770;51.624;5.886;2023-03-24T10:18:51;100124.00;;;21.49;39.28
62710;BME280;48770;51.624;5.886;2023-03-24T10:21:24;100122.44;;;21.52;38.75
62710;BME280;48770;51.624;5.886;2023-03-24T10:26:57;100122.81;;;21.50;38.92
62710;BME280;48770;51.624;5.886;2023-03-24T10:31:53;100130.03;;;21.55;39.10
62710;BME280;48770;51.624;5.886;2023-03-24T10:34:26;100130.47;;;21.57;38.73
62710;BME280;48770;51.624;5.886;2023-03-24T10:36:55;100121.72;;;21.59;38.76
62710;BME280;48770;51.624;5.886;2023-03-24T10:39:22;100120.94;;;21.58;38.94
62710;BME280;48770;51.624;5.886;2023-03-24T10:41:48;100122.91;;;21.58;38.87
62710;BME280;48770;51.624;5.886;2023-03-24T10:44:14;100126.13;;;21.60;38.61
62710;BME280;48770;51.624;5.886;2023-03-24T10:47:05;100120.88;;;21.54;38.91
62710;BME280;48770;51.624;5.886;2023-03-24T10:49:32;100111.34;;;21.55;39.14
62710;BME280;48770;51.624;5.886;2023-03-24T10:52:02;100116.97;;;21.59;38.86
62710;BME280;48770;51.624;5.886;2023-03-24T10:54:32;100125.31;;;21.59;38.61
62710;BME280;48770;51.624;5.886;2023-03-24T10:59:35;100115.88;;;21.64;38.92
62710;BME280;48770;51.624;5.886;2023-03-24T11:02:26;100126.94;;;21.60;38.83
62710;BME280;48770;51.624;5.886;2023-03-24T11:04:58;100122.25;;;21.64;38.89
62710;BME280;48770;51.624;5.886;2023-03-24T11:07:31;100122.66;;;21.66;38.79
62710;BME280;48770;51.624;5.886;2023-03-24T11:15:22;100113.13;;;21.67;38.75
62710;BME280;48770;51.624;5.886;2023-03-24T11:17:54;100119.56;;;21.71;38.75
62710;BME280;48770;51.624;5.886;2023-03-24T11:23:00;100130.69;;;21.71;38.80
62710;BME280;48770;51.624;5.886;2023-03-24T11:25:30;100120.34;;;21.72;38.64
62710;BME280;48770;51.624;5.886;2023-03-24T11:28:01;100124.75;;;21.73;38.22
62710;BME280;48770;51.624;5.886;2023-03-24T11:30:32;100117.19;;;21.73;38.82
62710;BME280;48770;51.624;5.886;2023-03-24T11:32:58;100128.75;;;21.75;38.84
62710;BME280;48770;51.624;5.886;2023-03-24T11:35:24;100133.94;;;21.77;38.63
62710;BME280;48770;51.624;5.886;2023-03-24T11:37:49;100135.53;;;21.78;38.74
62710;BME280;48770;51.624;5.886;2023-03-24T11:40:17;100134.78;;;21.81;38.44
62710;BME280;48770;51.624;5.886;2023-03-24T11:42:57;100130.03;;;21.81;38.33
62710;BME280;48770;51.624;5.886;2023-03-24T11:45:41;100120.50;;;21.82;38.22
62710;BME280;48770;51.624;5.886;2023-03-24T11:50:48;100117.72;;;21.82;38.65
62710;BME280;48770;51.624;5.886;2023-03-24T11:53:26;100119.31;;;21.83;38.51
62710;BME280;48770;51.624;5.886;2023-03-24T12:01:32;100103.63;;;21.68;38.79
62710;BME280;48770;51.624;5.886;2023-03-24T12:07:04;100109.75;;;21.81;38.78
62710;BME280;48770;51.624;5.886;2023-03-24T12:09:44;100106.56;;;21.82;38.24
62710;BME280;48770;51.624;5.886;2023-03-24T12:15:08;100105.34;;;21.80;38.50
62710;BME280;48770;51.624;5.886;2023-03-24T12:17:45;100111.28;;;21.78;38.41
62710;BME280;48770;51.624;5.886;2023-03-24T12:22:58;100124.34;;;21.74;38.76
62710;BME280;48770;51.624;5.886;2023-03-24T12:26:07;100132.25;;;21.69;38.71
62710;BME280;48770;51.624;5.886;2023-03-24T12:28:57;100171.13;;;21.65;38.62
62710;BME280;48770;51.624;5.886;2023-03-24T12:31:56;100182.28;;;21.65;38.89
62710;BME280;48770;51.624;5.886;2023-03-24T12:34:54;100167.13;;;21.63;38.71
62710;BME280;48770;51.624;5.886;2023-03-24T12:37:48;100181.75;;;21.60;39.13
62710;BME280;48770;51.624;5.886;2023-03-24T12:40:38;100184.13;;;21.58;38.86
62710;BME280;48770;51.624;5.886;2023-03-24T12:43:29;100177.31;;;21.55;38.83
62710;BME280;48770;51.624;5.886;2023-03-24T12:45:58;100184.50;;;21.56;39.47
62710;BME280;48770;51.624;5.886;2023-03-24T12:48:53;100183.25;;;21.53;39.22
62710;BME280;48770;51.624;5.886;2023-03-24T12:54:35;100186.84;;;21.54;39.49
62710;BME280;48770;51.624;5.886;2023-03-24T12:57:17;100164.22;;;21.55;39.38
62710;BME280;48770;51.624;5.886;2023-03-24T12:59:51;100168.69;;;21.60;39.66
62710;BME280;48770;51.624;5.886;2023-03-24T13:02:28;100161.56;;;21.63;39.59
62710;BME280;48770;51.624;5.886;2023-03-24T13:05:02;100147.69;;;21.66;39.61
62710;BME280;48770;51.624;5.886;2023-03-24T13:07:32;100141.81;;;21.71;39.63
62710;BME280;48770;51.624;5.886;2023-03-24T13:12:37;100141.91;;;21.78;39.55
62710;BME280;48770;51.624;5.886;2023-03-24T13:17:41;100138.78;;;21.83;39.29
62710;BME280;48770;51.624;5.886;2023-03-24T13:20:19;100129.25;;;21.84;39.03
62710;BME280;48770;51.624;5.886;2023-03-24T13:22:48;100130.06;;;21.85;39.29
62710;BME280;48770;51.624;5.886;2023-03-24T13:25:24;100126.56;;;21.88;39.59
62710;BME280;48770;51.624;5.886;2023-03-24T13:27:58;100110.69;;;21.92;39.22
62710;BME280;48770;51.624;5.886;2023-03-24T13:30:35;100117.50;;;21.95;39.61
62710;BME280;48770;51.624;5.886;2023-03-24T13:33:09;100115.94;;;21.97;39.51
62710;BME280;48770;51.624;5.886;2023-03-24T13:41:05;100116.78;;;22.01;39.27
62710;BME280;48770;51.624;5.886;2023-03-24T13:43:32;100113.63;;;22.03;39.33
62710;BME280;48770;51.624;5.886;2023-03-24T13:46:00;100117.66;;;22.05;39.26
62710;BME280;48770;51.624;5.886;2023-03-24T13:48:45;100124.03;;;22.06;39.29
62710;BME280;48770;51.624;5.886;2023-03-24T13:54:25;100129.59;;;22.06;39.50
62710;BME280;48770;51.624;5.886;2023-03-24T13:57:02;100131.19;;;22.07;39.49
62710;BME280;48770;51.624;5.886;2023-03-24T13:59:31;100124.44;;;22.08;39.74
62710;BME280;48770;51.624;5.886;2023-03-24T14:02:17;100130.00;;;22.08;39.22
62710;BME280;48770;51.624;5.886;2023-03-24T14:07:29;100110.22;;;22.13;39.73
62710;BME280;48770;51.624;5.886;2023-03-24T14:09:59;100110.63;;;22.15;39.37
62710;BME280;48770;51.624;5.886;2023-03-24T14:12:24;100104.31;;;22.18;39.51
62710;BME280;48770;51.624;5.886;2023-03-24T14:15:14;100103.13;;;22.19;39.27
62710;BME280;48770;51.624;5.886;2023-03-24T14:17:45;100088.44;;;22.22;39.21
62710;BME280;48770;51.624;5.886;2023-03-24T14:20:15;100088.84;;;22.24;39.22
62710;BME280;48770;51.624;5.886;2023-03-24T14:22:47;100093.25;;;22.25;39.29
62710;BME280;48770;51.624;5.886;2023-03-24T14:27:49;100084.09;;;22.25;39.06
62710;BME280;48770;51.624;5.886;2023-03-24T14:30:20;100067.38;;;22.25;38.99
62710;BME280;48770;51.624;5.886;2023-03-24T14:32:53;100079.69;;;22.24;39.26
62710;BME280;48770;51.624;5.886;2023-03-24T14:35:33;100077.31;;;22.22;39.02
62710;BME280;48770;51.624;5.886;2023-03-24T14:38:03;100063.75;;;22.21;39.25
62710;BME280;48770;51.624;5.886;2023-03-24T14:40:35;100074.09;;;22.20;39.59
62710;BME280;48770;51.624;5.886;2023-03-24T14:45:41;100096.75;;;22.19;39.42
62710;BME280;48770;51.624;5.886;2023-03-24T14:48:31;100104.31;;;22.18;39.43
62710;BME280;48770;51.624;5.886;2023-03-24T14:51:02;100101.13;;;22.20;39.38
62710;BME280;48770;51.624;5.886;2023-03-24T14:53:34;100111.47;;;22.19;39.95
62710;BME280;48770;51.624;5.886;2023-03-24T14:56:01;100099.97;;;22.21;39.49
62710;BME280;48770;51.624;5.886;2023-03-24T14:58:34;100100.38;;;22.23;39.75